Time;durP1;ratioP1;P1;durP2;ratioP2;P2;SDS_P1;SDS_P2;PMS_P1;PMS_P2;Temp;Humidity;BMP_temperature;BMP_pressure;BME280_temperature;BME280_humidity;BME280_pressure;Samples;Min_cycle;Max_cycle;Signal;HPM_P1;HPM_P2
2023/12/15 00:02:22;;;;;;;18.42;9.48;;;2.70;99.90;;;;;;5048902;28;20044;-66
2023/12/15 00:04:55;;;;;;;15.90;9.50;;;2.60;99.90;;;;;;5051214;28;20060;-66
2023/12/15 00:07:21;;;;;;;17.98;9.68;;;2.60;99.90;;;;;;5039822;28;20048;-64
2023/12/15 00:09:50;;;;;;;19.17;9.02;;;2.60;99.90;;;;;;5059890;28;20082;-66
2023/12/15 00:12:16;;;;;;;21.15;10.15;;;2.70;99.90;;;;;;5033017;28;20037;-65
2023/12/15 00:14:42;;;;;;;16.58;8.68;;;2.70;99.90;;;;;;5022498;28;20120;-65
2023/12/15 00:17:07;;;;;;;18.67;9.45;;;2.80;99.90;;;;;;5027980;28;20753;-65
2023/12/15 00:19:33;;;;;;;20.38;10.50;;;2.70;99.90;;;;;;5009100;28;20465;-66
2023/12/15 00:21:59;;;;;;;18.80;9.68;;;2.70;99.90;;;;;;5023016;23;20048;-65
2023/12/15 00:24:24;;;;;;;17.95;9.52;;;2.70;99.90;;;;;;5082142;28;20036;-66
2023/12/15 00:26:50;;;;;;;16.08;9.15;;;2.70;99.90;;;;;;5080527;28;20045;-68
2023/12/15 00:29:16;;;;;;;14.55;8.48;;;2.70;99.90;;;;;;5064453;28;20123;-66
2023/12/15 00:31:41;;;;;;;20.48;9.55;;;2.80;99.90;;;;;;5082589;28;20074;-66
2023/12/15 00:34:07;;;;;;;16.80;8.65;;;2.80;99.90;;;;;;5082173;28;20037;-65
2023/12/15 00:36:33;;;;;;;18.65;9.07;;;2.70;99.90;;;;;;5083966;28;20048;-66
2023/12/15 00:38:59;;;;;;;22.30;9.13;;;2.80;99.90;;;;;;5077609;28;20595;-66
2023/12/15 00:41:24;;;;;;;17.00;9.05;;;2.80;99.90;;;;;;5075287;28;20037;-66
2023/12/15 00:43:49;;;;;;;16.70;9.00;;;2.80;99.90;;;;;;5068085;28;20029;-66
2023/12/15 00:46:15;;;;;;;16.58;8.30;;;2.80;99.90;;;;;;5072540;28;20070;-67
2023/12/15 00:48:42;;;;;;;16.52;8.95;;;2.80;99.90;;;;;;5083429;28;20080;-66
2023/12/15 00:51:07;;;;;;;14.82;8.05;;;2.80;99.90;;;;;;5075218;28;20050;-66
2023/12/15 00:53:33;;;;;;;15.85;8.30;;;2.80;99.90;;;;;;5073044;28;20040;-66
2023/12/15 00:55:59;;;;;;;18.80;9.52;;;2.80;99.90;;;;;;5073392;28;20040;-65
2023/12/15 00:58:25;;;;;;;15.43;8.32;;;2.80;99.90;;;;;;5075210;28;20119;-66
2023/12/15 01:00:51;;;;;;;16.33;8.82;;;2.80;99.90;;;;;;5069203;28;20132;-65
2023/12/15 01:03:16;;;;;;;15.80;8.77;;;2.80;99.90;;;;;;5075061;28;20477;-66
2023/12/15 01:05:42;;;;;;;16.02;8.18;;;2.80;99.90;;;;;;5079315;28;20050;-66
2023/12/15 01:08:07;;;;;;;17.33;7.80;;;2.80;99.90;;;;;;5052779;28;20124;-67
2023/12/15 01:10:33;;;;;;;17.52;8.77;;;2.80;99.90;;;;;;5071129;28;20105;-66
2023/12/15 01:12:59;;;;;;;15.23;8.57;;;2.80;99.90;;;;;;5077677;28;20040;-66
2023/12/15 01:15:24;;;;;;;17.98;8.70;;;2.80;99.90;;;;;;5077097;28;20036;-67
2023/12/15 01:17:50;;;;;;;17.20;7.30;;;2.80;99.90;;;;;;5083557;28;20119;-67
2023/12/15 01:20:17;;;;;;;12.23;7.03;;;2.90;99.90;;;;;;5082966;28;20074;-66
2023/12/15 01:22:42;;;;;;;13.10;7.32;;;2.80;99.90;;;;;;5083427;28;20573;-66
2023/12/15 01:25:09;;;;;;;20.23;9.90;;;2.80;99.90;;;;;;5077710;28;20056;-67
2023/12/15 01:27:35;;;;;;;13.88;7.93;;;2.80;99.90;;;;;;5080660;28;20051;-66
2023/12/15 01:30:00;;;;;;;13.68;7.78;;;2.80;99.90;;;;;;5081336;28;20122;-67
2023/12/15 01:32:26;;;;;;;13.40;7.45;;;2.80;99.90;;;;;;5047053;28;20041;-66
2023/12/15 01:34:51;;;;;;;12.45;7.07;;;2.80;99.90;;;;;;5044492;28;20500;-66
2023/12/15 01:37:17;;;;;;;13.95;7.05;;;2.80;99.90;;;;;;5046276;28;20032;-66
2023/12/15 01:39:42;;;;;;;10.45;6.05;;;2.90;99.90;;;;;;5045480;28;20037;-66
2023/12/15 01:42:08;;;;;;;14.30;7.30;;;2.90;99.90;;;;;;5045609;28;20047;-66
2023/12/15 01:44:33;;;;;;;14.43;6.72;;;3.00;99.90;;;;;;5045597;28;20443;-66
2023/12/15 01:47:01;;;;;;;12.02;6.88;;;3.00;99.90;;;;;;5046161;28;20052;-66
2023/12/15 01:49:28;;;;;;;12.68;7.88;;;3.00;99.90;;;;;;5045532;28;20067;-66
2023/12/15 01:51:53;;;;;;;12.70;7.22;;;3.00;99.90;;;;;;5044949;28;20159;-66
2023/12/15 01:54:19;;;;;;;12.55;7.10;;;3.00;99.90;;;;;;5045056;28;20088;-65
2023/12/15 01:56:45;;;;;;;14.73;7.18;;;3.00;99.90;;;;;;5045407;28;20079;-66
2023/12/15 01:59:11;;;;;;;16.80;8.38;;;3.00;99.90;;;;;;5044725;28;20037;-66
2023/12/15 02:01:36;;;;;;;16.98;7.63;;;3.00;99.90;;;;;;5044842;28;20062;-66
2023/12/15 02:04:02;;;;;;;13.40;7.22;;;3.00;99.90;;;;;;5044040;28;20048;-65
2023/12/15 02:06:27;;;;;;;18.98;6.65;;;3.00;99.90;;;;;;5045240;28;20105;-66
2023/12/15 02:08:56;;;;;;;16.88;7.50;;;3.00;99.90;;;;;;5043978;28;20142;-66
2023/12/15 02:11:22;;;;;;;14.35;6.95;;;3.00;99.90;;;;;;5043372;28;20167;-66
2023/12/15 02:13:47;;;;;;;13.77;7.28;;;3.00;99.90;;;;;;5044513;28;20071;-66
2023/12/15 02:16:13;;;;;;;13.35;7.07;;;3.10;99.90;;;;;;5044535;28;20123;-66
2023/12/15 02:18:38;;;;;;;19.25;8.43;;;3.10;99.90;;;;;;5040461;28;20542;-66
2023/12/15 02:21:04;;;;;;;15.27;7.78;;;3.10;99.90;;;;;;5043644;28;20263;-66
2023/12/15 02:23:30;;;;;;;17.45;7.70;;;3.10;99.90;;;;;;5026824;28;20033;-66
2023/12/15 02:25:55;;;;;;;19.55;7.65;;;3.10;99.90;;;;;;5043250;28;20124;-65
2023/12/15 02:28:21;;;;;;;18.65;7.10;;;3.10;99.90;;;;;;5044983;28;20079;-67
2023/12/15 02:30:46;;;;;;;24.38;8.68;;;3.10;99.90;;;;;;5043853;28;20028;-66
2023/12/15 02:33:12;;;;;;;18.13;8.45;;;3.10;99.90;;;;;;5040482;28;20045;-65
2023/12/15 02:35:40;;;;;;;15.02;7.50;;;3.10;99.90;;;;;;5043956;28;20040;-66
2023/12/15 02:38:09;;;;;;;15.32;7.60;;;3.10;99.90;;;;;;5044984;28;20063;-66
2023/12/15 02:40:35;;;;;;;17.50;8.55;;;3.10;99.90;;;;;;5043501;28;20133;-66
2023/12/15 02:43:01;;;;;;;21.50;8.63;;;3.10;99.90;;;;;;5044905;28;20094;-67
2023/12/15 02:45:26;;;;;;;20.38;8.43;;;3.20;99.90;;;;;;5043446;28;20045;-66
2023/12/15 02:47:53;;;;;;;21.08;8.77;;;3.10;99.90;;;;;;5046057;28;20055;-66
2023/12/15 02:50:19;;;;;;;17.85;7.93;;;3.10;99.90;;;;;;5038518;28;20036;-65
2023/12/15 02:52:52;;;;;;;20.92;8.88;;;3.10;99.90;;;;;;5027039;28;20480;-66
2023/12/15 02:55:17;;;;;;;19.40;8.52;;;3.00;99.90;;;;;;5043198;28;20155;-67
2023/12/15 02:57:43;;;;;;;22.83;8.45;;;3.00;99.90;;;;;;5044829;28;20120;-65
2023/12/15 03:00:09;;;;;;;22.45;9.38;;;2.90;99.90;;;;;;5043725;28;20028;-66
2023/12/15 03:02:34;;;;;;;22.77;8.85;;;2.90;99.90;;;;;;5070443;28;20488;-66
2023/12/15 03:05:00;;;;;;;25.27;8.77;;;2.80;99.90;;;;;;5070576;28;20039;-65
2023/12/15 03:07:25;;;;;;;20.90;8.88;;;2.70;99.90;;;;;;5072021;28;20037;-66
2023/12/15 03:09:51;;;;;;;23.20;8.63;;;2.60;99.90;;;;;;5059622;28;20592;-65
2023/12/15 03:12:16;;;;;;;17.63;7.68;;;2.60;99.90;;;;;;5075779;28;20066;-65
2023/12/15 03:14:42;;;;;;;17.33;8.50;;;2.60;99.90;;;;;;5068886;28;20082;-66
2023/12/15 03:17:07;;;;;;;14.57;7.22;;;2.60;99.90;;;;;;5070169;28;20059;-65
2023/12/15 03:19:33;;;;;;;19.65;8.60;;;2.60;99.90;;;;;;5081798;28;20058;-65
2023/12/15 03:21:58;;;;;;;18.73;7.15;;;2.60;99.90;;;;;;5078040;28;20051;-66
2023/12/15 03:24:24;;;;;;;15.75;7.53;;;2.60;99.90;;;;;;5081408;28;20603;-66
2023/12/15 03:26:50;;;;;;;16.33;7.07;;;2.60;99.90;;;;;;5077334;28;20032;-65
2023/12/15 03:29:15;;;;;;;19.95;7.90;;;2.60;99.90;;;;;;5067148;28;20078;-65
2023/12/15 03:31:41;;;;;;;15.63;6.75;;;2.60;99.90;;;;;;5054913;28;20113;-65
2023/12/15 03:34:07;;;;;;;16.40;7.97;;;2.60;99.90;;;;;;5042136;28;20095;-65
2023/12/15 03:36:38;;;;;;;16.63;7.82;;;2.60;99.90;;;;;;5044624;28;20049;-66
2023/12/15 03:39:07;;;;;;;14.88;6.80;;;2.60;99.90;;;;;;5042618;28;20045;-65
2023/12/15 03:41:32;;;;;;;15.88;7.20;;;2.60;99.90;;;;;;5043132;28;20659;-66
2023/12/15 03:43:58;;;;;;;17.88;8.18;;;2.60;99.90;;;;;;5042989;28;20041;-66
2023/12/15 03:46:24;;;;;;;18.35;7.95;;;2.60;99.90;;;;;;5043760;28;20701;-66
2023/12/15 03:48:49;;;;;;;21.27;8.15;;;2.50;99.90;;;;;;5038991;28;20077;-65
2023/12/15 03:51:15;;;;;;;20.38;7.47;;;2.50;99.90;;;;;;5043008;28;20047;-66
2023/12/15 03:53:43;;;;;;;16.92;7.65;;;2.50;99.90;;;;;;5046820;28;20041;-66
2023/12/15 03:56:09;;;;;;;14.98;7.40;;;2.50;99.90;;;;;;5045863;28;20091;-66
2023/12/15 03:58:35;;;;;;;19.05;8.15;;;2.40;99.90;;;;;;5047923;28;20048;-66
2023/12/15 04:01:00;;;;;;;18.00;7.38;;;2.40;99.90;;;;;;5053245;28;20629;-65
2023/12/15 04:03:26;;;;;;;16.17;7.15;;;2.40;99.90;;;;;;5068012;28;20086;-65
2023/12/15 04:05:54;;;;;;;22.13;8.30;;;2.40;99.90;;;;;;5064762;28;20052;-66
2023/12/15 04:08:20;;;;;;;19.35;8.25;;;2.40;99.90;;;;;;5066344;28;20041;-66
2023/12/15 04:10:45;;;;;;;17.88;8.57;;;2.40;99.90;;;;;;5066587;28;20036;-66
2023/12/15 04:13:11;;;;;;;17.35;7.57;;;2.40;99.90;;;;;;5065197;28;20040;-66
2023/12/15 04:15:38;;;;;;;17.38;8.25;;;2.40;99.90;;;;;;5065699;28;20753;-66
2023/12/15 04:18:04;;;;;;;20.52;8.68;;;2.40;99.90;;;;;;5067066;28;20700;-64
2023/12/15 04:20:30;;;;;;;19.50;8.95;;;2.40;99.90;;;;;;5059891;28;20119;-66
2023/12/15 04:22:55;;;;;;;20.92;10.18;;;2.40;99.90;;;;;;5063690;28;20116;-66
2023/12/15 04:25:21;;;;;;;20.90;9.77;;;2.40;99.90;;;;;;5061500;28;20048;-65
2023/12/15 04:27:46;;;;;;;22.35;9.23;;;2.30;99.90;;;;;;5065098;28;20033;-66
2023/12/15 04:30:12;;;;;;;17.13;9.07;;;2.40;99.90;;;;;;5065200;28;20040;-66
2023/12/15 04:32:38;;;;;;;21.80;9.52;;;2.40;99.90;;;;;;5067357;28;20101;-66
2023/12/15 04:35:05;;;;;;;26.52;9.80;;;2.40;99.90;;;;;;5066077;28;20043;-65
2023/12/15 04:37:31;;;;;;;27.95;11.05;;;2.40;99.90;;;;;;5060475;28;20132;-65
2023/12/15 04:39:56;;;;;;;18.13;9.05;;;2.30;99.90;;;;;;5064525;28;20740;-66
2023/12/15 04:42:22;;;;;;;25.30;9.02;;;2.40;99.90;;;;;;5066801;28;20036;-66
2023/12/15 04:44:47;;;;;;;18.35;8.15;;;2.30;99.90;;;;;;5066481;28;20052;-65
2023/12/15 04:47:13;;;;;;;18.85;8.48;;;2.30;99.90;;;;;;5067158;28;20036;-65
2023/12/15 04:49:39;;;;;;;20.02;8.77;;;2.40;99.90;;;;;;5064003;28;20055;-68
2023/12/15 04:52:05;;;;;;;17.45;8.68;;;2.40;99.90;;;;;;5066134;28;20036;-66
2023/12/15 04:54:30;;;;;;;22.70;7.85;;;2.50;99.90;;;;;;5065291;28;20036;-66
2023/12/15 04:56:56;;;;;;;18.45;8.07;;;2.60;99.90;;;;;;5066823;28;20040;-66
2023/12/15 04:59:22;;;;;;;19.60;8.40;;;2.70;99.90;;;;;;5063782;28;20110;-66
2023/12/15 05:01:47;;;;;;;17.23;7.55;;;2.70;99.90;;;;;;5063984;28;20504;-66
2023/12/15 05:04:13;;;;;;;20.48;8.82;;;2.70;99.90;;;;;;5061022;28;20043;-68
2023/12/15 05:06:38;;;;;;;17.25;8.40;;;2.70;99.90;;;;;;5066205;28;20040;-66
2023/12/15 05:09:04;;;;;;;21.58;8.32;;;2.70;99.90;;;;;;5064977;28;20068;-66
2023/12/15 05:11:34;;;;;;;17.02;7.93;;;2.70;99.90;;;;;;5064892;28;20040;-65
2023/12/15 05:14:00;;;;;;;21.83;8.48;;;2.70;99.90;;;;;;5065783;28;20044;-66
2023/12/15 05:16:25;;;;;;;19.40;8.75;;;2.70;99.90;;;;;;5062980;28;20044;-67
2023/12/15 05:18:51;;;;;;;17.23;7.57;;;2.70;99.90;;;;;;5065385;28;20044;-67
2023/12/15 05:21:16;;;;;;;15.13;7.57;;;2.70;99.90;;;;;;5065548;28;20064;-66
2023/12/15 05:23:42;;;;;;;16.15;7.10;;;2.70;99.90;;;;;;5065802;28;20567;-66
2023/12/15 05:26:07;;;;;;;16.50;7.25;;;2.80;99.90;;;;;;5065077;28;20041;-66
2023/12/15 05:28:33;;;;;;;17.85;7.63;;;2.80;99.90;;;;;;5065690;28;20044;-66
2023/12/15 05:30:58;;;;;;;18.77;8.20;;;2.90;99.90;;;;;;5064467;28;20125;-65
2023/12/15 05:33:24;;;;;;;18.17;8.30;;;2.90;99.90;;;;;;5065363;28;20048;-66
2023/12/15 05:35:50;;;;;;;16.45;7.35;;;3.00;99.90;;;;;;5064959;28;20032;-66
2023/12/15 05:38:16;;;;;;;18.35;8.38;;;3.00;99.90;;;;;;5065396;28;20040;-66
2023/12/15 05:40:42;;;;;;;16.13;8.18;;;3.00;99.90;;;;;;5064348;28;20052;-66
2023/12/15 05:43:07;;;;;;;16.88;7.50;;;3.10;99.90;;;;;;5065240;28;20037;-67
2023/12/15 05:45:33;;;;;;;17.33;7.97;;;3.10;99.90;;;;;;5063493;28;20093;-66
2023/12/15 05:47:58;;;;;;;15.45;8.05;;;3.10;99.90;;;;;;5065348;28;20123;-67
2023/12/15 05:50:24;;;;;;;15.48;7.53;;;3.20;99.90;;;;;;5061421;28;20119;-66
2023/12/15 05:52:49;;;;;;;14.23;7.03;;;3.20;99.90;;;;;;5065240;28;20397;-66
2023/12/15 05:55:15;;;;;;;17.35;7.07;;;3.20;99.90;;;;;;5063653;28;20033;-66
2023/12/15 05:57:40;;;;;;;16.88;7.57;;;3.20;99.90;;;;;;5065468;28;20044;-66
2023/12/15 06:00:06;;;;;;;14.93;7.53;;;3.20;99.90;;;;;;5061514;28;20399;-66
2023/12/15 06:02:32;;;;;;;14.90;7.30;;;3.20;99.90;;;;;;5064969;28;20045;-65
2023/12/15 06:04:58;;;;;;;16.35;6.63;;;3.20;99.90;;;;;;5064857;28;20110;-66
2023/12/15 06:07:24;;;;;;;13.93;6.72;;;3.20;99.90;;;;;;5047332;28;20504;-66
2023/12/15 06:09:50;;;;;;;15.75;7.07;;;3.20;99.90;;;;;;5064364;28;20089;-66
2023/12/15 06:12:16;;;;;;;15.20;6.80;;;3.30;99.90;;;;;;5060031;28;20119;-66
2023/12/15 06:14:41;;;;;;;12.55;5.50;;;3.30;99.90;;;;;;5061934;28;20089;-66
2023/12/15 06:17:07;;;;;;;14.20;6.60;;;3.30;99.90;;;;;;5065207;28;20045;-65
2023/12/15 06:19:33;;;;;;;13.48;7.18;;;3.30;99.90;;;;;;5063875;28;20270;-67
2023/12/15 06:22:00;;;;;;;10.85;5.32;;;3.30;99.90;;;;;;5064694;28;20032;-66
2023/12/15 06:24:25;;;;;;;11.27;5.57;;;3.40;99.90;;;;;;5062684;28;20040;-66
2023/12/15 06:26:51;;;;;;;11.07;5.18;;;3.40;99.90;;;;;;5064928;28;20048;-66
2023/12/15 06:29:16;;;;;;;9.27;4.72;;;3.40;99.90;;;;;;5063130;28;20495;-66
2023/12/15 06:31:48;;;;;;;10.40;5.55;;;3.50;99.90;;;;;;5058994;28;20033;-66
2023/12/15 06:34:14;;;;;;;8.45;4.70;;;3.50;99.90;;;;;;5063631;28;20047;-67
2023/12/15 06:36:40;;;;;;;8.80;4.82;;;3.50;99.90;;;;;;5060629;28;20303;-69
2023/12/15 06:39:06;;;;;;;12.25;4.75;;;3.50;99.90;;;;;;5062191;28;20432;-68
2023/12/15 06:41:31;;;;;;;13.90;5.72;;;3.60;99.90;;;;;;5063347;28;20474;-65
2023/12/15 06:43:58;;;;;;;14.48;6.55;;;3.60;99.90;;;;;;5063316;28;20036;-65
2023/12/15 06:46:24;;;;;;;12.77;6.10;;;3.60;99.90;;;;;;5063683;28;20516;-66
2023/12/15 06:48:49;;;;;;;15.27;6.10;;;3.70;99.90;;;;;;5064178;28;20040;-67
2023/12/15 06:51:15;;;;;;;13.35;6.30;;;3.70;99.90;;;;;;5064188;28;20717;-66
2023/12/15 06:53:41;;;;;;;14.20;6.47;;;3.70;99.90;;;;;;5064192;28;20047;-67
2023/12/15 06:56:07;;;;;;;12.18;6.70;;;3.70;99.90;;;;;;5063491;28;20033;-68
2023/12/15 06:58:32;;;;;;;16.38;6.47;;;3.70;99.90;;;;;;5063775;28;20039;-67
2023/12/15 07:00:58;;;;;;;12.20;6.32;;;3.70;99.90;;;;;;5063447;28;20127;-62
2023/12/15 07:03:23;;;;;;;11.38;5.90;;;3.70;99.90;;;;;;5064259;28;20538;-64
2023/12/15 07:05:49;;;;;;;11.57;6.32;;;3.70;99.90;;;;;;5062614;28;20407;-63
2023/12/15 07:08:15;;;;;;;12.00;6.15;;;3.70;99.90;;;;;;5064413;28;20037;-63
2023/12/15 07:10:41;;;;;;;14.65;6.50;;;3.80;99.90;;;;;;5063397;28;20036;-64
2023/12/15 07:13:07;;;;;;;14.30;6.40;;;3.90;99.90;;;;;;5063091;28;20068;-61
2023/12/15 07:15:33;;;;;;;13.07;7.30;;;3.90;99.90;;;;;;5062939;28;20076;-65
2023/12/15 07:17:59;;;;;;;13.85;6.53;;;3.90;99.90;;;;;;5061224;28;20480;-64
2023/12/15 07:20:25;;;;;;;13.55;6.57;;;3.90;99.90;;;;;;5063112;28;20033;-66
2023/12/15 07:22:51;;;;;;;12.93;7.30;;;3.90;99.90;;;;;;5064261;28;20745;-66
2023/12/15 07:25:17;;;;;;;14.35;7.75;;;4.00;99.90;;;;;;5062063;28;20044;-63
2023/12/15 07:27:43;;;;;;;15.63;6.53;;;4.00;99.90;;;;;;5065032;28;20040;-65
2023/12/15 07:30:09;;;;;;;13.95;7.28;;;3.90;99.90;;;;;;5066172;28;20036;-65
2023/12/15 07:32:34;;;;;;;14.43;7.47;;;4.00;99.90;;;;;;5066348;28;20615;-63
2023/12/15 07:35:00;;;;;;;17.20;9.95;;;4.00;99.90;;;;;;5065758;28;20036;-63
2023/12/15 07:37:25;;;;;;;16.23;8.57;;;4.10;99.90;;;;;;5066252;28;20233;-65
2023/12/15 07:39:51;;;;;;;13.95;7.88;;;4.10;99.90;;;;;;5065987;28;20037;-66
2023/12/15 07:42:17;;;;;;;16.05;8.02;;;4.10;99.90;;;;;;5050325;28;20033;-64
2023/12/15 07:44:42;;;;;;;14.90;7.53;;;4.10;99.90;;;;;;5068037;28;20032;-66
2023/12/15 07:47:08;;;;;;;15.18;7.80;;;4.10;99.90;;;;;;5068374;28;20032;-65
2023/12/15 07:49:34;;;;;;;16.58;7.45;;;4.10;99.90;;;;;;5066085;28;20037;-64
2023/12/15 07:52:01;;;;;;;16.80;8.18;;;4.10;99.90;;;;;;5068260;28;20032;-64
2023/12/15 07:54:29;;;;;;;16.17;7.95;;;4.10;99.90;;;;;;5066653;28;20052;-64
2023/12/15 07:56:55;;;;;;;15.57;8.27;;;4.10;99.90;;;;;;5067826;28;20036;-65
2023/12/15 07:59:21;;;;;;;17.45;8.50;;;4.10;99.90;;;;;;5066795;28;20041;-66
2023/12/15 08:01:51;;;;;;;16.63;8.75;;;4.10;99.90;;;;;;5067441;28;20043;-65
2023/12/15 08:04:16;;;;;;;16.38;8.38;;;4.10;99.90;;;;;;5067157;28;20032;-65
2023/12/15 08:06:42;;;;;;;13.57;7.25;;;4.10;99.90;;;;;;5068072;28;20055;-65
2023/12/15 08:09:08;;;;;;;15.40;8.10;;;4.10;99.90;;;;;;5066848;28;20090;-65
2023/12/15 08:11:34;;;;;;;22.40;10.18;;;4.10;99.90;;;;;;5065703;28;20042;-65
2023/12/15 08:14:01;;;;;;;20.20;9.40;;;4.20;99.90;;;;;;5066902;28;20047;-65
2023/12/15 08:16:26;;;;;;;15.73;8.50;;;4.20;99.90;;;;;;5067218;28;20066;-65
2023/12/15 08:18:52;;;;;;;16.90;8.15;;;4.20;99.90;;;;;;5065611;28;20495;-65
2023/12/15 08:21:17;;;;;;;13.40;7.65;;;4.20;99.90;;;;;;5066200;28;20175;-65
2023/12/15 08:23:43;;;;;;;21.42;9.80;;;4.20;99.90;;;;;;5065598;28;20506;-63
2023/12/15 08:26:08;;;;;;;17.13;8.35;;;4.20;99.90;;;;;;5066104;28;20032;-64
2023/12/15 08:28:35;;;;;;;17.17;8.70;;;4.20;99.90;;;;;;5065823;28;20144;-62
2023/12/15 08:31:02;;;;;;;18.02;9.23;;;4.30;99.90;;;;;;5065046;28;20474;-63
2023/12/15 08:33:28;;;;;;;15.43;7.90;;;4.20;99.90;;;;;;5066680;28;20106;-64
2023/12/15 08:35:54;;;;;;;14.38;7.35;;;4.30;99.90;;;;;;5066095;28;20097;-64
2023/12/15 08:38:19;;;;;;;20.35;9.00;;;4.30;99.90;;;;;;5066608;28;20040;-65
2023/12/15 08:40:45;;;;;;;14.48;7.57;;;4.30;99.90;;;;;;5065216;28;20109;-63
2023/12/15 08:43:10;;;;;;;14.85;7.93;;;4.30;99.90;;;;;;5066338;28;20046;-64
2023/12/15 08:45:36;;;;;;;17.75;9.02;;;4.40;99.90;;;;;;5064954;28;20127;-64
2023/12/15 08:48:02;;;;;;;19.73;8.65;;;4.40;99.90;;;;;;5066683;28;20048;-64
2023/12/15 08:50:28;;;;;;;19.73;9.15;;;4.30;99.90;;;;;;5066066;28;20041;-64
2023/12/15 08:52:54;;;;;;;13.48;7.47;;;4.30;99.90;;;;;;5065665;28;20042;-64
2023/12/15 08:55:19;;;;;;;13.50;7.68;;;4.30;99.90;;;;;;5065520;28;20029;-64
2023/12/15 08:57:45;;;;;;;18.85;8.73;;;4.40;99.90;;;;;;5065820;28;20539;-65
2023/12/15 09:00:11;;;;;;;19.10;8.52;;;4.40;99.90;;;;;;5065430;28;20044;-62
2023/12/15 09:02:36;;;;;;;16.42;8.15;;;4.40;99.90;;;;;;5065468;28;20075;-64
2023/12/15 09:05:14;;;;;;;21.45;9.57;;;4.40;99.90;;;;;;5055149;28;20063;-65
2023/12/15 09:07:44;;;;;;;19.65;9.23;;;4.40;99.90;;;;;;5065038;28;20079;-64
2023/12/15 09:10:10;;;;;;;27.20;10.50;;;4.40;99.90;;;;;;5064773;28;20044;-63
2023/12/15 09:12:36;;;;;;;19.30;8.93;;;4.40;99.90;;;;;;5066025;28;20047;-65
2023/12/15 09:15:02;;;;;;;14.98;8.32;;;4.40;99.90;;;;;;5062678;28;20043;-65
2023/12/15 09:17:28;;;;;;;16.88;8.27;;;4.50;99.90;;;;;;5061656;28;20036;-64
2023/12/15 09:19:53;;;;;;;19.27;8.75;;;4.50;99.90;;;;;;5063867;28;20047;-64
2023/12/15 09:22:19;;;;;;;27.92;10.85;;;4.50;99.90;;;;;;5065109;28;20032;-64
2023/12/15 09:24:45;;;;;;;20.50;8.48;;;4.50;99.90;;;;;;5058311;28;20133;-64
2023/12/15 09:27:10;;;;;;;17.98;8.85;;;4.50;99.90;;;;;;5065587;28;20706;-64
2023/12/15 09:29:36;;;;;;;17.95;8.73;;;4.50;99.90;;;;;;5065159;28;20072;-62
2023/12/15 09:32:02;;;;;;;19.58;8.65;;;4.60;99.90;;;;;;5064156;28;20033;-65
2023/12/15 09:34:28;;;;;;;15.38;7.47;;;4.60;99.90;;;;;;5064537;28;20047;-64
2023/12/15 09:36:53;;;;;;;12.95;6.88;;;4.70;99.90;;;;;;5064468;28;20040;-64
2023/12/15 09:39:22;;;;;;;14.75;7.93;;;4.70;99.90;;;;;;5043599;28;20045;-66
2023/12/15 09:41:48;;;;;;;19.17;8.00;;;4.70;99.90;;;;;;5065557;28;20155;-64
2023/12/15 09:44:15;;;;;;;12.77;6.78;;;4.70;99.90;;;;;;5062380;28;20072;-65
2023/12/15 09:46:42;;;;;;;12.82;6.72;;;4.80;99.90;;;;;;5065247;28;20040;-64
2023/12/15 09:49:14;;;;;;;12.25;6.68;;;4.80;99.90;;;;;;5064453;28;20076;-64
2023/12/15 09:51:47;;;;;;;14.45;6.75;;;4.80;99.90;;;;;;5062036;28;20627;-64
2023/12/15 09:54:13;;;;;;;12.75;6.50;;;4.90;99.90;;;;;;5063218;28;20036;-65
2023/12/15 09:56:38;;;;;;;12.30;6.13;;;4.90;99.90;;;;;;5064995;28;20063;-65
2023/12/15 09:59:05;;;;;;;12.95;6.20;;;5.00;99.90;;;;;;5063854;28;20043;-65
2023/12/15 10:01:31;;;;;;;15.77;6.63;;;5.00;99.90;;;;;;5065115;28;20127;-65
2023/12/15 10:03:57;;;;;;;12.07;6.55;;;5.00;99.90;;;;;;5064051;28;20048;-64
2023/12/15 10:06:24;;;;;;;13.50;7.07;;;5.00;99.90;;;;;;5065876;28;20048;-65
2023/12/15 10:08:49;;;;;;;14.73;7.53;;;5.00;99.90;;;;;;5063944;28;20558;-65
2023/12/15 10:11:16;;;;;;;14.35;7.50;;;5.00;99.90;;;;;;5065398;28;20032;-64
2023/12/15 10:13:42;;;;;;;17.35;7.68;;;5.00;99.90;;;;;;5064779;28;20086;-67
2023/12/15 10:16:11;;;;;;;12.95;6.82;;;5.00;99.90;;;;;;5064078;28;20645;-64
2023/12/15 10:18:40;;;;;;;12.60;6.32;;;4.90;99.90;;;;;;5063179;28;20086;-65
2023/12/15 10:21:06;;;;;;;12.70;6.95;;;5.00;99.90;;;;;;5063843;28;20080;-62
2023/12/15 10:23:32;;;;;;;21.85;8.02;;;5.00;99.90;;;;;;5064857;28;20056;-63
2023/12/15 10:26:06;;;;;;;22.75;8.77;;;5.00;99.90;;;;;;5062282;28;20036;-64
2023/12/15 10:28:39;;;;;;;14.18;7.28;;;5.00;99.90;;;;;;5064998;28;20046;-65
2023/12/15 10:31:08;;;;;;;15.18;7.35;;;5.10;99.90;;;;;;5063010;28;20047;-65
2023/12/15 10:33:34;;;;;;;14.18;7.53;;;5.10;99.90;;;;;;5064399;28;20043;-64
2023/12/15 10:36:00;;;;;;;15.32;7.93;;;5.10;99.90;;;;;;5062740;28;20060;-65
2023/12/15 10:38:30;;;;;;;13.57;7.20;;;5.10;99.90;;;;;;5064785;28;20043;-62
2023/12/15 10:40:57;;;;;;;14.43;6.88;;;5.20;99.90;;;;;;5062603;28;20307;-63
2023/12/15 10:43:23;;;;;;;13.77;7.78;;;5.10;99.90;;;;;;5064525;28;20032;-64
2023/12/15 10:45:53;;;;;;;17.25;8.63;;;5.00;99.90;;;;;;5063449;28;20812;-64
2023/12/15 10:48:19;;;;;;;13.75;7.10;;;5.00;99.90;;;;;;5062068;28;20094;-64
2023/12/15 10:50:48;;;;;;;16.67;8.32;;;5.00;99.90;;;;;;5063864;28;20037;-64
2023/12/15 10:53:14;;;;;;;13.77;7.20;;;5.10;99.90;;;;;;5064289;28;21382;-65
2023/12/15 10:55:45;;;;;;;15.82;7.63;;;5.10;99.90;;;;;;5063129;28;20045;-65
2023/12/15 10:58:12;;;;;;;15.90;6.90;;;5.10;99.90;;;;;;5063585;28;20048;-63
2023/12/15 11:00:38;;;;;;;15.50;6.43;;;5.10;99.90;;;;;;5062660;28;20067;-64
2023/12/15 11:03:09;;;;;;;21.25;6.35;;;5.20;99.90;;;;;;5063592;28;20399;-64
2023/12/15 11:05:35;;;;;;;12.77;5.90;;;5.10;99.90;;;;;;5063968;28;20039;-65
2023/12/15 11:08:01;;;;;;;13.65;7.25;;;5.10;99.90;;;;;;5060332;28;20059;-65
2023/12/15 11:10:27;;;;;;;18.08;6.85;;;5.20;99.90;;;;;;5063815;28;20036;-65
2023/12/15 11:12:53;;;;;;;15.02;6.75;;;5.20;99.90;;;;;;5061835;28;20500;-63
2023/12/15 11:15:19;;;;;;;13.57;6.72;;;5.30;99.90;;;;;;5058501;28;20045;-64
2023/12/15 11:17:52;;;;;;;15.23;7.55;;;5.30;99.90;;;;;;5058338;28;20110;-64
2023/12/15 11:20:21;;;;;;;12.65;6.57;;;5.30;99.90;;;;;;5063751;28;20115;-64
2023/12/15 11:22:53;;;;;;;18.75;6.78;;;5.40;99.90;;;;;;5062954;28;20045;-64
2023/12/15 11:25:45;;;;;;;19.48;8.35;;;5.40;99.90;;;;;;5060736;28;20039;-64
2023/12/15 11:28:15;;;;;;;18.23;6.95;;;5.50;99.90;;;;;;5048305;28;20052;-61
2023/12/15 11:30:59;;;;;;;20.58;8.18;;;5.50;99.90;;;;;;5057292;28;20132;-68
2023/12/15 11:33:36;;;;;;;20.38;7.57;;;5.60;99.90;;;;;;5061974;28;20119;-57
2023/12/15 11:36:09;;;;;;;17.52;8.07;;;5.60;99.90;;;;;;5061518;28;20044;-64
2023/12/15 11:38:36;;;;;;;25.02;8.30;;;5.60;99.90;;;;;;5061541;28;20079;-64
2023/12/15 11:41:02;;;;;;;19.67;8.50;;;5.50;99.90;;;;;;5062211;28;20136;-65
2023/12/15 11:43:32;;;;;;;21.77;8.32;;;5.50;99.90;;;;;;5064593;28;20135;-65
2023/12/15 11:45:58;;;;;;;19.33;7.68;;;5.40;99.90;;;;;;5063011;28;20412;-65
2023/12/15 11:48:24;;;;;;;20.05;6.68;;;5.40;99.90;;;;;;5064662;28;20070;-66
2023/12/15 11:50:50;;;;;;;25.17;8.63;;;5.50;99.90;;;;;;5063185;28;20036;-67
2023/12/15 11:53:17;;;;;;;21.25;7.53;;;5.60;99.90;;;;;;5063535;28;20692;-67
2023/12/15 11:55:45;;;;;;;21.15;8.05;;;5.60;99.90;;;;;;5062821;28;20346;-65
2023/12/15 11:58:14;;;;;;;16.50;7.50;;;5.70;99.90;;;;;;5058183;28;20040;-64
2023/12/15 12:00:43;;;;;;;21.08;7.90;;;5.70;99.90;;;;;;5043637;28;20101;-64
2023/12/15 12:03:13;;;;;;;20.17;8.10;;;5.70;99.90;;;;;;5063831;28;20036;-65
2023/12/15 12:05:41;;;;;;;27.65;7.85;;;5.80;99.90;;;;;;5063421;28;20048;-64
2023/12/15 12:08:09;;;;;;;18.10;8.13;;;5.80;99.90;;;;;;5063292;28;20037;-64
2023/12/15 12:10:37;;;;;;;15.43;8.00;;;5.80;99.90;;;;;;5063286;28;20148;-64
2023/12/15 12:13:05;;;;;;;16.85;7.40;;;5.90;99.90;;;;;;5064347;28;20155;-65
2023/12/15 12:15:30;;;;;;;23.08;8.15;;;5.90;99.90;;;;;;5065290;28;20096;-65
2023/12/15 12:17:56;;;;;;;18.48;8.38;;;5.80;99.90;;;;;;5068760;28;20178;-66
2023/12/15 12:20:26;;;;;;;20.73;8.63;;;5.80;99.90;;;;;;5064776;28;20056;-67
2023/12/15 12:22:52;;;;;;;25.38;9.00;;;5.90;99.90;;;;;;5065241;28;20048;-63
2023/12/15 12:25:17;;;;;;;18.30;8.40;;;5.90;99.90;;;;;;5066518;28;20036;-63
2023/12/15 12:27:44;;;;;;;19.58;8.38;;;5.80;99.90;;;;;;5067621;28;20074;-64
2023/12/15 12:30:12;;;;;;;18.77;7.68;;;5.80;99.90;;;;;;5065175;28;20055;-66
2023/12/15 12:32:38;;;;;;;22.80;9.38;;;5.80;99.90;;;;;;5068042;28;20704;-64
2023/12/15 12:35:05;;;;;;;18.90;8.07;;;5.90;99.90;;;;;;5061930;28;20040;-63
2023/12/15 12:37:33;;;;;;;15.05;7.88;;;5.90;99.90;;;;;;5059846;28;20516;-63
2023/12/15 12:40:06;;;;;;;17.90;7.93;;;5.90;99.90;;;;;;5063797;28;20058;-64
2023/12/15 12:42:35;;;;;;;21.15;7.90;;;5.90;99.90;;;;;;5063895;28;20041;-63